sensor_id;sensor_type;location;lat;lon;timestamp;P1;durP1;ratioP1;P2;durP2;ratioP2
52166;SDS011;38149;52.666;6.428;2023-05-18T00:01:20;0.10;;;0.10;;
52166;SDS011;38149;52.666;6.428;2023-05-18T00:03:46;0.10;;;0.10;;
52166;SDS011;38149;52.666;6.428;2023-05-18T00:06:12;0.20;;;0.20;;
52166;SDS011;38149;52.666;6.428;2023-05-18T00:08:38;0.20;;;0.20;;
52166;SDS011;38149;52.666;6.428;2023-05-18T00:11:05;0.20;;;0.20;;
52166;SDS011;38149;52.666;6.428;2023-05-18T00:13:31;0.20;;;0.20;;
52166;SDS011;38149;52.666;6.428;2023-05-18T00:15:57;0.20;;;0.20;;
52166;SDS011;38149;52.666;6.428;2023-05-18T00:18:23;0.20;;;0.20;;
52166;SDS011;38149;52.666;6.428;2023-05-18T00:20:51;0.20;;;0.20;;
52166;SDS011;38149;52.666;6.428;2023-05-18T00:26:01;0.20;;;0.20;;
52166;SDS011;38149;52.666;6.428;2023-05-18T00:28:27;0.20;;;0.20;;
52166;SDS011;38149;52.666;6.428;2023-05-18T00:30:54;0.20;;;0.20;;
52166;SDS011;38149;52.666;6.428;2023-05-18T00:33:21;0.20;;;0.20;;
52166;SDS011;38149;52.666;6.428;2023-05-18T00:35:47;0.20;;;0.20;;
52166;SDS011;38149;52.666;6.428;2023-05-18T00:38:13;0.20;;;0.20;;
52166;SDS011;38149;52.666;6.428;2023-05-18T00:40:40;0.20;;;0.20;;
52166;SDS011;38149;52.666;6.428;2023-05-18T00:43:06;0.20;;;0.20;;
52166;SDS011;38149;52.666;6.428;2023-05-18T00:45:32;0.20;;;0.20;;
52166;SDS011;38149;52.666;6.428;2023-05-18T00:47:58;0.20;;;0.20;;
52166;SDS011;38149;52.666;6.428;2023-05-18T00:50:24;0.20;;;0.20;;
52166;SDS011;38149;52.666;6.428;2023-05-18T00:52:51;0.20;;;0.20;;
52166;SDS011;38149;52.666;6.428;2023-05-18T00:55:17;0.20;;;0.20;;
52166;SDS011;38149;52.666;6.428;2023-05-18T00:57:44;0.20;;;0.20;;
52166;SDS011;38149;52.666;6.428;2023-05-18T01:00:13;0.20;;;0.20;;
52166;SDS011;38149;52.666;6.428;2023-05-18T01:02:40;0.20;;;0.20;;
52166;SDS011;38149;52.666;6.428;2023-05-18T01:05:10;0.20;;;0.20;;
52166;SDS011;38149;52.666;6.428;2023-05-18T01:07:37;0.20;;;0.20;;
52166;SDS011;38149;52.666;6.428;2023-05-18T01:10:06;0.20;;;0.20;;
52166;SDS011;38149;52.666;6.428;2023-05-18T01:12:36;0.20;;;0.20;;
52166;SDS011;38149;52.666;6.428;2023-05-18T01:15:25;0.20;;;0.20;;
52166;SDS011;38149;52.666;6.428;2023-05-18T01:26:20;0.20;;;0.20;;
52166;SDS011;38149;52.666;6.428;2023-05-18T01:28:58;0.20;;;0.20;;
52166;SDS011;38149;52.666;6.428;2023-05-18T01:31:26;0.20;;;0.20;;
52166;SDS011;38149;52.666;6.428;2023-05-18T01:33:52;0.20;;;0.20;;
52166;SDS011;38149;52.666;6.428;2023-05-18T01:36:19;0.20;;;0.20;;
52166;SDS011;38149;52.666;6.428;2023-05-18T01:38:45;0.20;;;0.20;;
52166;SDS011;38149;52.666;6.428;2023-05-18T01:44:26;0.20;;;0.20;;
52166;SDS011;38149;52.666;6.428;2023-05-18T01:49:07;0.20;;;0.20;;
52166;SDS011;38149;52.666;6.428;2023-05-18T01:51:40;0.20;;;0.20;;
52166;SDS011;38149;52.666;6.428;2023-05-18T01:54:09;0.20;;;0.20;;
52166;SDS011;38149;52.666;6.428;2023-05-18T01:56:36;0.20;;;0.20;;
52166;SDS011;38149;52.666;6.428;2023-05-18T01:59:04;0.20;;;0.20;;
52166;SDS011;38149;52.666;6.428;2023-05-18T02:01:30;0.20;;;0.20;;
52166;SDS011;38149;52.666;6.428;2023-05-18T02:03:56;0.20;;;0.20;;
52166;SDS011;38149;52.666;6.428;2023-05-18T02:06:22;0.20;;;0.20;;
52166;SDS011;38149;52.666;6.428;2023-05-18T02:08:49;0.20;;;0.20;;
52166;SDS011;38149;52.666;6.428;2023-05-18T02:11:15;0.20;;;0.20;;
52166;SDS011;38149;52.666;6.428;2023-05-18T02:13:41;0.20;;;0.20;;
52166;SDS011;38149;52.666;6.428;2023-05-18T02:16:07;0.20;;;0.20;;
52166;SDS011;38149;52.666;6.428;2023-05-18T02:18:35;0.20;;;0.20;;
52166;SDS011;38149;52.666;6.428;2023-05-18T02:21:02;0.20;;;0.20;;
52166;SDS011;38149;52.666;6.428;2023-05-18T02:23:29;0.20;;;0.20;;
52166;SDS011;38149;52.666;6.428;2023-05-18T02:25:55;0.20;;;0.20;;
52166;SDS011;38149;52.666;6.428;2023-05-18T02:28:21;0.20;;;0.20;;
52166;SDS011;38149;52.666;6.428;2023-05-18T02:30:48;0.20;;;0.20;;
52166;SDS011;38149;52.666;6.428;2023-05-18T02:33:14;0.20;;;0.20;;
52166;SDS011;38149;52.666;6.428;2023-05-18T02:35:41;0.20;;;0.20;;
52166;SDS011;38149;52.666;6.428;2023-05-18T02:38:07;0.20;;;0.20;;
52166;SDS011;38149;52.666;6.428;2023-05-18T02:40:33;0.20;;;0.20;;
52166;SDS011;38149;52.666;6.428;2023-05-18T02:42:59;0.20;;;0.20;;
52166;SDS011;38149;52.666;6.428;2023-05-18T02:45:26;0.20;;;0.20;;
52166;SDS011;38149;52.666;6.428;2023-05-18T02:47:52;0.20;;;0.20;;
52166;SDS011;38149;52.666;6.428;2023-05-18T02:50:18;0.20;;;0.20;;
52166;SDS011;38149;52.666;6.428;2023-05-18T02:52:44;0.20;;;0.20;;
52166;SDS011;38149;52.666;6.428;2023-05-18T02:55:13;0.20;;;0.20;;
52166;SDS011;38149;52.666;6.428;2023-05-18T02:57:39;0.20;;;0.20;;
52166;SDS011;38149;52.666;6.428;2023-05-18T03:00:10;0.20;;;0.20;;
52166;SDS011;38149;52.666;6.428;2023-05-18T03:02:40;0.30;;;0.30;;
52166;SDS011;38149;52.666;6.428;2023-05-18T03:05:08;0.20;;;0.20;;
52166;SDS011;38149;52.666;6.428;2023-05-18T03:07:34;0.20;;;0.20;;
52166;SDS011;38149;52.666;6.428;2023-05-18T03:10:03;0.20;;;0.20;;
52166;SDS011;38149;52.666;6.428;2023-05-18T03:12:31;0.20;;;0.20;;
52166;SDS011;38149;52.666;6.428;2023-05-18T03:14:58;0.20;;;0.20;;
52166;SDS011;38149;52.666;6.428;2023-05-18T03:17:24;0.20;;;0.20;;
52166;SDS011;38149;52.666;6.428;2023-05-18T03:19:50;0.20;;;0.20;;
52166;SDS011;38149;52.666;6.428;2023-05-18T03:22:16;0.20;;;0.20;;
52166;SDS011;38149;52.666;6.428;2023-05-18T03:24:42;0.20;;;0.20;;
52166;SDS011;38149;52.666;6.428;2023-05-18T03:27:09;0.20;;;0.20;;
52166;SDS011;38149;52.666;6.428;2023-05-18T03:29:36;0.22;;;0.22;;
52166;SDS011;38149;52.666;6.428;2023-05-18T03:32:03;0.20;;;0.20;;
52166;SDS011;38149;52.666;6.428;2023-05-18T03:34:29;0.20;;;0.20;;
52166;SDS011;38149;52.666;6.428;2023-05-18T03:36:55;0.20;;;0.20;;
52166;SDS011;38149;52.666;6.428;2023-05-18T03:39:22;0.28;;;0.28;;
52166;SDS011;38149;52.666;6.428;2023-05-18T03:41:48;0.20;;;0.20;;
52166;SDS011;38149;52.666;6.428;2023-05-18T03:44:14;0.20;;;0.20;;
52166;SDS011;38149;52.666;6.428;2023-05-18T03:46:40;0.20;;;0.20;;
52166;SDS011;38149;52.666;6.428;2023-05-18T03:49:06;0.22;;;0.22;;
52166;SDS011;38149;52.666;6.428;2023-05-18T03:51:32;0.20;;;0.20;;
52166;SDS011;38149;52.666;6.428;2023-05-18T03:53:59;0.30;;;0.30;;
52166;SDS011;38149;52.666;6.428;2023-05-18T03:56:25;0.20;;;0.20;;
52166;SDS011;38149;52.666;6.428;2023-05-18T03:58:51;0.30;;;0.30;;
52166;SDS011;38149;52.666;6.428;2023-05-18T04:01:17;0.20;;;0.20;;
52166;SDS011;38149;52.666;6.428;2023-05-18T04:03:43;0.28;;;0.28;;
52166;SDS011;38149;52.666;6.428;2023-05-18T04:06:10;0.30;;;0.30;;
52166;SDS011;38149;52.666;6.428;2023-05-18T04:08:36;0.30;;;0.30;;
52166;SDS011;38149;52.666;6.428;2023-05-18T04:11:02;0.30;;;0.30;;
52166;SDS011;38149;52.666;6.428;2023-05-18T04:13:28;0.30;;;0.30;;
52166;SDS011;38149;52.666;6.428;2023-05-18T04:15:55;0.20;;;0.20;;
52166;SDS011;38149;52.666;6.428;2023-05-18T04:18:22;0.20;;;0.20;;
52166;SDS011;38149;52.666;6.428;2023-05-18T04:20:48;0.20;;;0.20;;
52166;SDS011;38149;52.666;6.428;2023-05-18T04:23:15;0.20;;;0.20;;
52166;SDS011;38149;52.666;6.428;2023-05-18T04:25:41;0.20;;;0.20;;
52166;SDS011;38149;52.666;6.428;2023-05-18T04:28:07;0.22;;;0.22;;
52166;SDS011;38149;52.666;6.428;2023-05-18T04:30:34;0.20;;;0.20;;
52166;SDS011;38149;52.666;6.428;2023-05-18T04:33:01;0.28;;;0.28;;
52166;SDS011;38149;52.666;6.428;2023-05-18T04:35:28;0.20;;;0.20;;
52166;SDS011;38149;52.666;6.428;2023-05-18T04:37:56;0.20;;;0.20;;
52166;SDS011;38149;52.666;6.428;2023-05-18T04:40:22;0.20;;;0.20;;
52166;SDS011;38149;52.666;6.428;2023-05-18T04:42:49;0.30;;;0.30;;
52166;SDS011;38149;52.666;6.428;2023-05-18T04:45:18;0.20;;;0.20;;
52166;SDS011;38149;52.666;6.428;2023-05-18T04:47:45;0.20;;;0.20;;
52166;SDS011;38149;52.666;6.428;2023-05-18T04:50:15;0.20;;;0.20;;
52166;SDS011;38149;52.666;6.428;2023-05-18T04:52:44;0.20;;;0.20;;
52166;SDS011;38149;52.666;6.428;2023-05-18T04:55:15;0.30;;;0.30;;
52166;SDS011;38149;52.666;6.428;2023-05-18T04:57:51;0.30;;;0.30;;
52166;SDS011;38149;52.666;6.428;2023-05-18T05:00:20;0.30;;;0.30;;
52166;SDS011;38149;52.666;6.428;2023-05-18T05:02:50;0.30;;;0.30;;
52166;SDS011;38149;52.666;6.428;2023-05-18T05:05:16;0.20;;;0.20;;
52166;SDS011;38149;52.666;6.428;2023-05-18T05:07:43;0.20;;;0.20;;
52166;SDS011;38149;52.666;6.428;2023-05-18T05:10:09;0.30;;;0.30;;
52166;SDS011;38149;52.666;6.428;2023-05-18T05:12:39;0.30;;;0.30;;
52166;SDS011;38149;52.666;6.428;2023-05-18T05:15:05;0.30;;;0.30;;
52166;SDS011;38149;52.666;6.428;2023-05-18T05:17:32;0.30;;;0.30;;
52166;SDS011;38149;52.666;6.428;2023-05-18T05:19:58;0.20;;;0.20;;
52166;SDS011;38149;52.666;6.428;2023-05-18T05:22:24;0.25;;;0.25;;
52166;SDS011;38149;52.666;6.428;2023-05-18T05:24:51;0.20;;;0.20;;
52166;SDS011;38149;52.666;6.428;2023-05-18T05:27:17;0.20;;;0.20;;
52166;SDS011;38149;52.666;6.428;2023-05-18T05:29:46;0.25;;;0.25;;
52166;SDS011;38149;52.666;6.428;2023-05-18T05:32:14;0.20;;;0.20;;
52166;SDS011;38149;52.666;6.428;2023-05-18T05:34:41;0.30;;;0.30;;
52166;SDS011;38149;52.666;6.428;2023-05-18T05:37:10;0.30;;;0.30;;
52166;SDS011;38149;52.666;6.428;2023-05-18T05:39:37;0.30;;;0.30;;
52166;SDS011;38149;52.666;6.428;2023-05-18T05:42:04;0.20;;;0.20;;
52166;SDS011;38149;52.666;6.428;2023-05-18T05:44:31;0.20;;;0.20;;
52166;SDS011;38149;52.666;6.428;2023-05-18T05:46:57;0.20;;;0.20;;
52166;SDS011;38149;52.666;6.428;2023-05-18T05:49:23;0.20;;;0.20;;
52166;SDS011;38149;52.666;6.428;2023-05-18T05:51:49;0.20;;;0.20;;
52166;SDS011;38149;52.666;6.428;2023-05-18T05:54:16;0.20;;;0.20;;
52166;SDS011;38149;52.666;6.428;2023-05-18T05:56:42;0.20;;;0.20;;
52166;SDS011;38149;52.666;6.428;2023-05-18T05:59:08;0.20;;;0.20;;
52166;SDS011;38149;52.666;6.428;2023-05-18T06:01:34;0.20;;;0.20;;
52166;SDS011;38149;52.666;6.428;2023-05-18T06:04:01;0.20;;;0.20;;
52166;SDS011;38149;52.666;6.428;2023-05-18T06:06:30;0.28;;;0.28;;
52166;SDS011;38149;52.666;6.428;2023-05-18T06:08:57;0.30;;;0.30;;
52166;SDS011;38149;52.666;6.428;2023-05-18T06:11:23;0.20;;;0.20;;
52166;SDS011;38149;52.666;6.428;2023-05-18T06:13:49;0.20;;;0.20;;
52166;SDS011;38149;52.666;6.428;2023-05-18T06:16:16;0.20;;;0.20;;
52166;SDS011;38149;52.666;6.428;2023-05-18T06:18:42;0.20;;;0.20;;
52166;SDS011;38149;52.666;6.428;2023-05-18T06:21:09;0.20;;;0.20;;
52166;SDS011;38149;52.666;6.428;2023-05-18T06:23:35;0.20;;;0.20;;
52166;SDS011;38149;52.666;6.428;2023-05-18T06:26:01;0.20;;;0.20;;
52166;SDS011;38149;52.666;6.428;2023-05-18T06:28:27;0.20;;;0.20;;
52166;SDS011;38149;52.666;6.428;2023-05-18T06:30:53;0.20;;;0.20;;
52166;SDS011;38149;52.666;6.428;2023-05-18T06:33:19;0.20;;;0.20;;
52166;SDS011;38149;52.666;6.428;2023-05-18T06:35:47;0.20;;;0.20;;
52166;SDS011;38149;52.666;6.428;2023-05-18T06:38:13;0.20;;;0.20;;
52166;SDS011;38149;52.666;6.428;2023-05-18T06:40:39;0.20;;;0.20;;
52166;SDS011;38149;52.666;6.428;2023-05-18T06:43:06;0.20;;;0.20;;
52166;SDS011;38149;52.666;6.428;2023-05-18T06:45:32;0.20;;;0.20;;
52166;SDS011;38149;52.666;6.428;2023-05-18T06:47:58;0.20;;;0.20;;
52166;SDS011;38149;52.666;6.428;2023-05-18T06:50:25;0.20;;;0.20;;
52166;SDS011;38149;52.666;6.428;2023-05-18T06:52:51;0.20;;;0.20;;
52166;SDS011;38149;52.666;6.428;2023-05-18T06:55:17;0.20;;;0.20;;
52166;SDS011;38149;52.666;6.428;2023-05-18T06:57:44;0.20;;;0.20;;
52166;SDS011;38149;52.666;6.428;2023-05-18T07:00:10;0.20;;;0.20;;
52166;SDS011;38149;52.666;6.428;2023-05-18T07:02:37;0.20;;;0.20;;
52166;SDS011;38149;52.666;6.428;2023-05-18T07:05:04;0.20;;;0.20;;
52166;SDS011;38149;52.666;6.428;2023-05-18T07:07:33;0.20;;;0.20;;
52166;SDS011;38149;52.666;6.428;2023-05-18T07:10:00;0.20;;;0.20;;
52166;SDS011;38149;52.666;6.428;2023-05-18T07:12:27;0.20;;;0.20;;
52166;SDS011;38149;52.666;6.428;2023-05-18T07:14:53;0.20;;;0.20;;
52166;SDS011;38149;52.666;6.428;2023-05-18T07:17:21;0.20;;;0.20;;
52166;SDS011;38149;52.666;6.428;2023-05-18T07:19:48;0.20;;;0.20;;
52166;SDS011;38149;52.666;6.428;2023-05-18T07:22:14;0.20;;;0.20;;
52166;SDS011;38149;52.666;6.428;2023-05-18T07:24:40;0.20;;;0.20;;
52166;SDS011;38149;52.666;6.428;2023-05-18T07:27:07;0.20;;;0.20;;
52166;SDS011;38149;52.666;6.428;2023-05-18T07:29:33;0.20;;;0.20;;
52166;SDS011;38149;52.666;6.428;2023-05-18T07:32:02;0.20;;;0.20;;
52166;SDS011;38149;52.666;6.428;2023-05-18T07:34:28;0.20;;;0.20;;
52166;SDS011;38149;52.666;6.428;2023-05-18T07:36:55;0.20;;;0.20;;
52166;SDS011;38149;52.666;6.428;2023-05-18T07:39:21;0.20;;;0.20;;
52166;SDS011;38149;52.666;6.428;2023-05-18T07:41:52;0.20;;;0.20;;
52166;SDS011;38149;52.666;6.428;2023-05-18T07:44:19;0.20;;;0.20;;
52166;SDS011;38149;52.666;6.428;2023-05-18T07:46:45;0.20;;;0.20;;
52166;SDS011;38149;52.666;6.428;2023-05-18T07:49:11;0.20;;;0.20;;
52166;SDS011;38149;52.666;6.428;2023-05-18T07:51:37;0.20;;;0.20;;
52166;SDS011;38149;52.666;6.428;2023-05-18T07:54:03;0.20;;;0.20;;
52166;SDS011;38149;52.666;6.428;2023-05-18T07:56:30;0.20;;;0.20;;
52166;SDS011;38149;52.666;6.428;2023-05-18T07:58:56;0.20;;;0.20;;
52166;SDS011;38149;52.666;6.428;2023-05-18T08:01:22;0.20;;;0.20;;
52166;SDS011;38149;52.666;6.428;2023-05-18T08:03:51;0.20;;;0.20;;
52166;SDS011;38149;52.666;6.428;2023-05-18T08:06:18;0.20;;;0.20;;
52166;SDS011;38149;52.666;6.428;2023-05-18T08:08:45;0.20;;;0.20;;
52166;SDS011;38149;52.666;6.428;2023-05-18T08:11:11;0.20;;;0.20;;
52166;SDS011;38149;52.666;6.428;2023-05-18T08:13:37;0.20;;;0.20;;
52166;SDS011;38149;52.666;6.428;2023-05-18T08:16:03;0.20;;;0.20;;
52166;SDS011;38149;52.666;6.428;2023-05-18T08:18:30;0.20;;;0.20;;
52166;SDS011;38149;52.666;6.428;2023-05-18T08:20:56;0.20;;;0.20;;
52166;SDS011;38149;52.666;6.428;2023-05-18T08:23:23;0.20;;;0.20;;
52166;SDS011;38149;52.666;6.428;2023-05-18T08:25:49;0.20;;;0.20;;
52166;SDS011;38149;52.666;6.428;2023-05-18T08:28:15;0.20;;;0.20;;
52166;SDS011;38149;52.666;6.428;2023-05-18T08:30:41;0.20;;;0.20;;
52166;SDS011;38149;52.666;6.428;2023-05-18T08:33:07;0.20;;;0.20;;
52166;SDS011;38149;52.666;6.428;2023-05-18T08:35:34;0.10;;;0.10;;
52166;SDS011;38149;52.666;6.428;2023-05-18T08:38:00;0.20;;;0.20;;
52166;SDS011;38149;52.666;6.428;2023-05-18T08:43:27;0.20;;;0.20;;
52166;SDS011;38149;52.666;6.428;2023-05-18T08:46:04;0.20;;;0.20;;
52166;SDS011;38149;52.666;6.428;2023-05-18T08:48:50;0.20;;;0.20;;
52166;SDS011;38149;52.666;6.428;2023-05-18T08:51:18;0.20;;;0.20;;
52166;SDS011;38149;52.666;6.428;2023-05-18T08:53:50;0.20;;;0.20;;
52166;SDS011;38149;52.666;6.428;2023-05-18T08:56:18;0.20;;;0.20;;
52166;SDS011;38149;52.666;6.428;2023-05-18T08:58:47;0.20;;;0.20;;
52166;SDS011;38149;52.666;6.428;2023-05-18T09:01:17;0.20;;;0.20;;
52166;SDS011;38149;52.666;6.428;2023-05-18T09:03:44;0.20;;;0.20;;
52166;SDS011;38149;52.666;6.428;2023-05-18T09:06:13;0.10;;;0.10;;
52166;SDS011;38149;52.666;6.428;2023-05-18T09:08:39;0.10;;;0.10;;
52166;SDS011;38149;52.666;6.428;2023-05-18T09:11:06;0.20;;;0.20;;
52166;SDS011;38149;52.666;6.428;2023-05-18T09:13:33;0.20;;;0.20;;
52166;SDS011;38149;52.666;6.428;2023-05-18T09:15:59;0.10;;;0.10;;
52166;SDS011;38149;52.666;6.428;2023-05-18T09:18:25;0.20;;;0.20;;
52166;SDS011;38149;52.666;6.428;2023-05-18T09:20:51;0.20;;;0.20;;
52166;SDS011;38149;52.666;6.428;2023-05-18T09:23:20;0.20;;;0.20;;
52166;SDS011;38149;52.666;6.428;2023-05-18T09:25:46;0.20;;;0.20;;
52166;SDS011;38149;52.666;6.428;2023-05-18T09:28:24;0.20;;;0.20;;
52166;SDS011;38149;52.666;6.428;2023-05-18T09:30:51;0.20;;;0.20;;
52166;SDS011;38149;52.666;6.428;2023-05-18T09:33:18;0.10;;;0.10;;
52166;SDS011;38149;52.666;6.428;2023-05-18T09:35:51;0.15;;;0.15;;
52166;SDS011;38149;52.666;6.428;2023-05-18T09:38:20;0.20;;;0.20;;
52166;SDS011;38149;52.666;6.428;2023-05-18T09:40:47;0.20;;;0.20;;
52166;SDS011;38149;52.666;6.428;2023-05-18T09:43:15;0.20;;;0.20;;
52166;SDS011;38149;52.666;6.428;2023-05-18T09:45:43;0.20;;;0.20;;
52166;SDS011;38149;52.666;6.428;2023-05-18T09:48:11;0.10;;;0.10;;
52166;SDS011;38149;52.666;6.428;2023-05-18T09:50:38;0.20;;;0.20;;
52166;SDS011;38149;52.666;6.428;2023-05-18T09:53:05;0.20;;;0.20;;
52166;SDS011;38149;52.666;6.428;2023-05-18T09:55:32;0.10;;;0.10;;
52166;SDS011;38149;52.666;6.428;2023-05-18T09:58:02;0.10;;;0.10;;
52166;SDS011;38149;52.666;6.428;2023-05-18T10:00:30;0.20;;;0.20;;
52166;SDS011;38149;52.666;6.428;2023-05-18T10:02:56;0.20;;;0.20;;
52166;SDS011;38149;52.666;6.428;2023-05-18T10:05:24;0.20;;;0.20;;
52166;SDS011;38149;52.666;6.428;2023-05-18T10:07:56;0.10;;;0.10;;
52166;SDS011;38149;52.666;6.428;2023-05-18T10:10:23;0.20;;;0.20;;
52166;SDS011;38149;52.666;6.428;2023-05-18T10:12:51;0.10;;;0.10;;
52166;SDS011;38149;52.666;6.428;2023-05-18T10:15:21;0.20;;;0.20;;
52166;SDS011;38149;52.666;6.428;2023-05-18T10:17:49;0.10;;;0.10;;
52166;SDS011;38149;52.666;6.428;2023-05-18T10:20:16;0.20;;;0.20;;
52166;SDS011;38149;52.666;6.428;2023-05-18T10:22:44;0.10;;;0.10;;
52166;SDS011;38149;52.666;6.428;2023-05-18T10:25:13;0.10;;;0.10;;
52166;SDS011;38149;52.666;6.428;2023-05-18T10:27:50;0.20;;;0.20;;
52166;SDS011;38149;52.666;6.428;2023-05-18T10:30:20;0.10;;;0.10;;
52166;SDS011;38149;52.666;6.428;2023-05-18T10:32:47;0.20;;;0.20;;
52166;SDS011;38149;52.666;6.428;2023-05-18T10:35:13;0.20;;;0.20;;
52166;SDS011;38149;52.666;6.428;2023-05-18T10:37:40;0.17;;;0.17;;
52166;SDS011;38149;52.666;6.428;2023-05-18T10:40:11;0.10;;;0.10;;
52166;SDS011;38149;52.666;6.428;2023-05-18T10:42:40;0.20;;;0.20;;
52166;SDS011;38149;52.666;6.428;2023-05-18T10:45:06;0.10;;;0.10;;
52166;SDS011;38149;52.666;6.428;2023-05-18T10:47:35;0.20;;;0.20;;
52166;SDS011;38149;52.666;6.428;2023-05-18T10:50:04;0.20;;;0.20;;
52166;SDS011;38149;52.666;6.428;2023-05-18T10:52:31;0.10;;;0.10;;
52166;SDS011;38149;52.666;6.428;2023-05-18T10:54:58;0.10;;;0.10;;
52166;SDS011;38149;52.666;6.428;2023-05-18T10:57:25;0.10;;;0.10;;
52166;SDS011;38149;52.666;6.428;2023-05-18T10:59:53;0.20;;;0.20;;
52166;SDS011;38149;52.666;6.428;2023-05-18T11:02:20;0.20;;;0.20;;
52166;SDS011;38149;52.666;6.428;2023-05-18T11:04:46;0.10;;;0.10;;
52166;SDS011;38149;52.666;6.428;2023-05-18T11:07:13;0.10;;;0.10;;
52166;SDS011;38149;52.666;6.428;2023-05-18T11:09:40;0.10;;;0.10;;
52166;SDS011;38149;52.666;6.428;2023-05-18T11:12:11;0.10;;;0.10;;
52166;SDS011;38149;52.666;6.428;2023-05-18T11:25:58;0.10;;;0.10;;
52166;SDS011;38149;52.666;6.428;2023-05-18T11:28:11;0.20;;;0.20;;
52166;SDS011;38149;52.666;6.428;2023-05-18T11:33:08;0.10;;;0.10;;
52166;SDS011;38149;52.666;6.428;2023-05-18T11:38:43;0.10;;;0.10;;
52166;SDS011;38149;52.666;6.428;2023-05-18T11:41:34;0.10;;;0.10;;
52166;SDS011;38149;52.666;6.428;2023-05-18T11:44:16;0.10;;;0.10;;
52166;SDS011;38149;52.666;6.428;2023-05-18T11:49:42;0.10;;;0.10;;
52166;SDS011;38149;52.666;6.428;2023-05-18T11:52:22;0.10;;;0.10;;
52166;SDS011;38149;52.666;6.428;2023-05-18T11:57:17;0.10;;;0.10;;
52166;SDS011;38149;52.666;6.428;2023-05-18T11:59:45;0.10;;;0.10;;
52166;SDS011;38149;52.666;6.428;2023-05-18T12:02:17;0.10;;;0.10;;
52166;SDS011;38149;52.666;6.428;2023-05-18T12:04:45;0.10;;;0.10;;
52166;SDS011;38149;52.666;6.428;2023-05-18T12:07:21;0.10;;;0.10;;
52166;SDS011;38149;52.666;6.428;2023-05-18T12:09:52;0.10;;;0.10;;
52166;SDS011;38149;52.666;6.428;2023-05-18T12:12:22;0.10;;;0.10;;
52166;SDS011;38149;52.666;6.428;2023-05-18T12:14:53;0.10;;;0.10;;
52166;SDS011;38149;52.666;6.428;2023-05-18T12:17:21;0.10;;;0.10;;
52166;SDS011;38149;52.666;6.428;2023-05-18T12:19:48;0.10;;;0.10;;
52166;SDS011;38149;52.666;6.428;2023-05-18T12:22:15;0.10;;;0.10;;
52166;SDS011;38149;52.666;6.428;2023-05-18T12:24:41;0.13;;;0.13;;
52166;SDS011;38149;52.666;6.428;2023-05-18T12:27:09;0.10;;;0.10;;
52166;SDS011;38149;52.666;6.428;2023-05-18T12:29:39;0.10;;;0.10;;
52166;SDS011;38149;52.666;6.428;2023-05-18T12:32:07;0.10;;;0.10;;
52166;SDS011;38149;52.666;6.428;2023-05-18T12:34:34;0.10;;;0.10;;
52166;SDS011;38149;52.666;6.428;2023-05-18T12:37:01;0.10;;;0.10;;
52166;SDS011;38149;52.666;6.428;2023-05-18T12:39:27;0.10;;;0.10;;
52166;SDS011;38149;52.666;6.428;2023-05-18T12:41:53;0.10;;;0.10;;
52166;SDS011;38149;52.666;6.428;2023-05-18T12:44:37;0.10;;;0.10;;
52166;SDS011;38149;52.666;6.428;2023-05-18T12:47:03;0.10;;;0.10;;
52166;SDS011;38149;52.666;6.428;2023-05-18T12:49:34;0.10;;;0.10;;
52166;SDS011;38149;52.666;6.428;2023-05-18T12:52:06;0.10;;;0.10;;
52166;SDS011;38149;52.666;6.428;2023-05-18T12:57:13;0.10;;;0.10;;
52166;SDS011;38149;52.666;6.428;2023-05-18T12:59:49;0.10;;;0.10;;
52166;SDS011;38149;52.666;6.428;2023-05-18T13:02:27;0.10;;;0.10;;
52166;SDS011;38149;52.666;6.428;2023-05-18T13:05:09;0.10;;;0.10;;
52166;SDS011;38149;52.666;6.428;2023-05-18T13:07:36;0.10;;;0.10;;
52166;SDS011;38149;52.666;6.428;2023-05-18T13:10:10;0.10;;;0.10;;
52166;SDS011;38149;52.666;6.428;2023-05-18T13:17:56;0.10;;;0.10;;
52166;SDS011;38149;52.666;6.428;2023-05-18T13:23:06;0.10;;;0.10;;
52166;SDS011;38149;52.666;6.428;2023-05-18T13:25:33;0.10;;;0.10;;
52166;SDS011;38149;52.666;6.428;2023-05-18T13:28:00;0.10;;;0.10;;
52166;SDS011;38149;52.666;6.428;2023-05-18T13:30:26;0.10;;;0.10;;
52166;SDS011;38149;52.666;6.428;2023-05-18T13:32:52;0.10;;;0.10;;
52166;SDS011;38149;52.666;6.428;2023-05-18T13:35:19;0.10;;;0.10;;
52166;SDS011;38149;52.666;6.428;2023-05-18T13:37:45;0.10;;;0.10;;
52166;SDS011;38149;52.666;6.428;2023-05-18T13:40:13;0.10;;;0.10;;
52166;SDS011;38149;52.666;6.428;2023-05-18T13:42:40;0.10;;;0.10;;
52166;SDS011;38149;52.666;6.428;2023-05-18T13:45:08;0.10;;;0.10;;
52166;SDS011;38149;52.666;6.428;2023-05-18T13:47:35;0.10;;;0.10;;
52166;SDS011;38149;52.666;6.428;2023-05-18T13:50:02;0.10;;;0.10;;
52166;SDS011;38149;52.666;6.428;2023-05-18T13:52:30;0.10;;;0.10;;
52166;SDS011;38149;52.666;6.428;2023-05-18T13:54:56;0.10;;;0.10;;
52166;SDS011;38149;52.666;6.428;2023-05-18T13:57:22;0.10;;;0.10;;
52166;SDS011;38149;52.666;6.428;2023-05-18T13:59:50;0.10;;;0.10;;
52166;SDS011;38149;52.666;6.428;2023-05-18T14:02:22;0.10;;;0.10;;
52166;SDS011;38149;52.666;6.428;2023-05-18T14:04:51;0.10;;;0.10;;
52166;SDS011;38149;52.666;6.428;2023-05-18T14:07:17;0.10;;;0.10;;
52166;SDS011;38149;52.666;6.428;2023-05-18T14:09:44;0.10;;;0.10;;
52166;SDS011;38149;52.666;6.428;2023-05-18T14:12:10;0.10;;;0.10;;
52166;SDS011;38149;52.666;6.428;2023-05-18T14:14:37;0.10;;;0.10;;
52166;SDS011;38149;52.666;6.428;2023-05-18T14:17:05;0.10;;;0.10;;
52166;SDS011;38149;52.666;6.428;2023-05-18T14:19:33;0.10;;;0.10;;
52166;SDS011;38149;52.666;6.428;2023-05-18T14:22:00;0.10;;;0.10;;
52166;SDS011;38149;52.666;6.428;2023-05-18T14:24:26;0.10;;;0.10;;
52166;SDS011;38149;52.666;6.428;2023-05-18T14:26:52;0.10;;;0.10;;
52166;SDS011;38149;52.666;6.428;2023-05-18T14:29:18;0.10;;;0.10;;
52166;SDS011;38149;52.666;6.428;2023-05-18T14:31:45;0.10;;;0.10;;
52166;SDS011;38149;52.666;6.428;2023-05-18T14:34:11;0.10;;;0.10;;
52166;SDS011;38149;52.666;6.428;2023-05-18T14:36:37;0.10;;;0.10;;
52166;SDS011;38149;52.666;6.428;2023-05-18T14:39:03;0.10;;;0.10;;
52166;SDS011;38149;52.666;6.428;2023-05-18T14:41:30;0.10;;;0.10;;
52166;SDS011;38149;52.666;6.428;2023-05-18T14:43:56;0.10;;;0.10;;
52166;SDS011;38149;52.666;6.428;2023-05-18T14:46:22;0.10;;;0.10;;
52166;SDS011;38149;52.666;6.428;2023-05-18T14:48:48;0.10;;;0.10;;
52166;SDS011;38149;52.666;6.428;2023-05-18T14:51:14;0.10;;;0.10;;
52166;SDS011;38149;52.666;6.428;2023-05-18T14:53:42;0.10;;;0.10;;
52166;SDS011;38149;52.666;6.428;2023-05-18T14:56:08;0.10;;;0.10;;
52166;SDS011;38149;52.666;6.428;2023-05-18T14:58:35;0.10;;;0.10;;
52166;SDS011;38149;52.666;6.428;2023-05-18T15:01:01;0.10;;;0.10;;
52166;SDS011;38149;52.666;6.428;2023-05-18T15:03:27;0.10;;;0.10;;
52166;SDS011;38149;52.666;6.428;2023-05-18T15:05:53;0.10;;;0.10;;
52166;SDS011;38149;52.666;6.428;2023-05-18T15:08:19;0.10;;;0.10;;
52166;SDS011;38149;52.666;6.428;2023-05-18T15:10:46;0.10;;;0.10;;
52166;SDS011;38149;52.666;6.428;2023-05-18T15:13:13;0.10;;;0.10;;
52166;SDS011;38149;52.666;6.428;2023-05-18T15:15:40;0.10;;;0.10;;
52166;SDS011;38149;52.666;6.428;2023-05-18T15:18:06;0.10;;;0.10;;
52166;SDS011;38149;52.666;6.428;2023-05-18T15:20:32;0.10;;;0.10;;
52166;SDS011;38149;52.666;6.428;2023-05-18T15:22:58;0.10;;;0.10;;
52166;SDS011;38149;52.666;6.428;2023-05-18T15:25:25;0.10;;;0.10;;
52166;SDS011;38149;52.666;6.428;2023-05-18T15:27:51;0.10;;;0.10;;
52166;SDS011;38149;52.666;6.428;2023-05-18T15:30:17;0.10;;;0.10;;
52166;SDS011;38149;52.666;6.428;2023-05-18T15:32:43;0.10;;;0.10;;
52166;SDS011;38149;52.666;6.428;2023-05-18T15:35:10;0.10;;;0.10;;
52166;SDS011;38149;52.666;6.428;2023-05-18T15:37:36;0.10;;;0.10;;
52166;SDS011;38149;52.666;6.428;2023-05-18T15:40:02;0.10;;;0.10;;
52166;SDS011;38149;52.666;6.428;2023-05-18T15:42:29;0.10;;;0.10;;